sensor_id;sensor_type;location;lat;lon;timestamp;temperature;humidity
1277;DHT22;631;51.024;13.826;2023-02-10T00:01:11;-2.70;99.90
1277;DHT22;631;51.024;13.826;2023-02-10T00:03:38;-2.70;99.90
1277;DHT22;631;51.024;13.826;2023-02-10T00:06:05;-2.70;99.90
1277;DHT22;631;51.024;13.826;2023-02-10T00:08:31;-2.80;99.90
1277;DHT22;631;51.024;13.826;2023-02-10T00:11:01;-2.80;99.90
1277;DHT22;631;51.024;13.826;2023-02-10T00:13:28;-2.80;99.90
1277;DHT22;631;51.024;13.826;2023-02-10T00:15:54;-2.80;99.90
1277;DHT22;631;51.024;13.826;2023-02-10T00:18:21;-2.90;99.90
1277;DHT22;631;51.024;13.826;2023-02-10T00:20:47;-2.90;99.90
1277;DHT22;631;51.024;13.826;2023-02-10T00:23:13;-3.00;99.90
1277;DHT22;631;51.024;13.826;2023-02-10T00:25:38;-3.00;99.90
1277;DHT22;631;51.024;13.826;2023-02-10T00:28:04;-3.00;99.90
1277;DHT22;631;51.024;13.826;2023-02-10T00:30:30;-3.00;99.90
1277;DHT22;631;51.024;13.826;2023-02-10T00:32:56;-3.00;99.90
1277;DHT22;631;51.024;13.826;2023-02-10T00:35:22;-3.00;99.90
1277;DHT22;631;51.024;13.826;2023-02-10T00:37:48;-3.00;99.90
1277;DHT22;631;51.024;13.826;2023-02-10T00:40:13;-3.00;99.90
1277;DHT22;631;51.024;13.826;2023-02-10T00:42:39;-3.00;99.90
1277;DHT22;631;51.024;13.826;2023-02-10T00:45:05;-3.00;99.90
1277;DHT22;631;51.024;13.826;2023-02-10T00:47:31;-3.10;99.90
1277;DHT22;631;51.024;13.826;2023-02-10T00:49:56;-3.10;99.90
1277;DHT22;631;51.024;13.826;2023-02-10T00:52:22;-3.20;99.90
1277;DHT22;631;51.024;13.826;2023-02-10T00:54:48;-3.20;99.90
1277;DHT22;631;51.024;13.826;2023-02-10T00:57:14;-3.20;99.90
1277;DHT22;631;51.024;13.826;2023-02-10T00:59:39;-3.20;99.90
1277;DHT22;631;51.024;13.826;2023-02-10T01:02:05;-3.10;99.90
1277;DHT22;631;51.024;13.826;2023-02-10T01:04:30;-3.20;99.90
1277;DHT22;631;51.024;13.826;2023-02-10T01:06:56;-3.20;99.90
1277;DHT22;631;51.024;13.826;2023-02-10T01:09:22;-3.20;99.90
1277;DHT22;631;51.024;13.826;2023-02-10T01:11:47;-3.20;99.90
1277;DHT22;631;51.024;13.826;2023-02-10T01:14:13;-3.20;99.90
1277;DHT22;631;51.024;13.826;2023-02-10T01:16:38;-3.20;99.90
1277;DHT22;631;51.024;13.826;2023-02-10T01:19:04;-3.20;99.90
1277;DHT22;631;51.024;13.826;2023-02-10T01:21:33;-3.20;99.90
1277;DHT22;631;51.024;13.826;2023-02-10T01:23:59;-3.20;99.90
1277;DHT22;631;51.024;13.826;2023-02-10T01:26:25;-3.20;99.90
1277;DHT22;631;51.024;13.826;2023-02-10T01:28:51;-3.20;99.90
1277;DHT22;631;51.024;13.826;2023-02-10T01:31:18;-3.20;99.90
1277;DHT22;631;51.024;13.826;2023-02-10T01:33:45;-3.30;99.90
1277;DHT22;631;51.024;13.826;2023-02-10T01:36:15;-3.30;99.90
1277;DHT22;631;51.024;13.826;2023-02-10T01:38:42;-3.30;99.90
1277;DHT22;631;51.024;13.826;2023-02-10T01:41:08;-3.30;99.90
1277;DHT22;631;51.024;13.826;2023-02-10T01:44:03;-3.30;99.90
1277;DHT22;631;51.024;13.826;2023-02-10T01:46:34;-3.30;99.90
1277;DHT22;631;51.024;13.826;2023-02-10T01:49:04;-3.40;99.90
1277;DHT22;631;51.024;13.826;2023-02-10T01:51:41;-3.40;99.90
1277;DHT22;631;51.024;13.826;2023-02-10T01:54:11;-3.40;99.90
1277;DHT22;631;51.024;13.826;2023-02-10T01:56:38;-3.50;99.90
1277;DHT22;631;51.024;13.826;2023-02-10T01:59:04;-3.50;99.90
1277;DHT22;631;51.024;13.826;2023-02-10T02:01:30;-3.50;99.90
1277;DHT22;631;51.024;13.826;2023-02-10T02:03:56;-3.50;99.90
1277;DHT22;631;51.024;13.826;2023-02-10T02:06:22;-3.50;99.90
1277;DHT22;631;51.024;13.826;2023-02-10T02:08:48;-3.60;99.90
1277;DHT22;631;51.024;13.826;2023-02-10T02:16:54;-3.60;99.90
1277;DHT22;631;51.024;13.826;2023-02-10T02:30:48;-3.80;99.90
1277;DHT22;631;51.024;13.826;2023-02-10T02:33:54;-3.90;99.90
1277;DHT22;631;51.024;13.826;2023-02-10T02:36:25;-3.90;99.90
1277;DHT22;631;51.024;13.826;2023-02-10T02:38:59;-3.90;99.90
1277;DHT22;631;51.024;13.826;2023-02-10T02:41:26;-4.00;99.90
1277;DHT22;631;51.024;13.826;2023-02-10T02:43:52;-4.00;99.90
1277;DHT22;631;51.024;13.826;2023-02-10T02:49:34;-4.00;99.90
1277;DHT22;631;51.024;13.826;2023-02-10T02:52:12;-4.00;99.90
1277;DHT22;631;51.024;13.826;2023-02-10T02:55:00;-3.90;99.90
1277;DHT22;631;51.024;13.826;2023-02-10T03:00:05;-3.90;99.90
1277;DHT22;631;51.024;13.826;2023-02-10T03:02:34;-3.90;99.90
1277;DHT22;631;51.024;13.826;2023-02-10T03:05:01;-4.00;99.90
1277;DHT22;631;51.024;13.826;2023-02-10T03:07:27;-4.00;99.90
1277;DHT22;631;51.024;13.826;2023-02-10T03:09:52;-4.00;99.90
1277;DHT22;631;51.024;13.826;2023-02-10T03:12:18;-4.00;99.90
1277;DHT22;631;51.024;13.826;2023-02-10T03:14:43;-4.00;99.90
1277;DHT22;631;51.024;13.826;2023-02-10T03:17:09;-4.00;99.90
1277;DHT22;631;51.024;13.826;2023-02-10T03:19:35;-3.90;99.90
1277;DHT22;631;51.024;13.826;2023-02-10T03:22:01;-3.90;99.90
1277;DHT22;631;51.024;13.826;2023-02-10T03:24:26;-3.90;99.90
1277;DHT22;631;51.024;13.826;2023-02-10T03:26:52;-3.80;99.90
1277;DHT22;631;51.024;13.826;2023-02-10T03:29:17;-3.80;99.90
1277;DHT22;631;51.024;13.826;2023-02-10T03:31:43;-3.70;99.90
1277;DHT22;631;51.024;13.826;2023-02-10T03:34:09;-3.70;99.90
1277;DHT22;631;51.024;13.826;2023-02-10T03:36:34;-3.60;99.90
1277;DHT22;631;51.024;13.826;2023-02-10T03:39:02;-3.50;99.90
1277;DHT22;631;51.024;13.826;2023-02-10T03:41:28;-3.40;99.90
1277;DHT22;631;51.024;13.826;2023-02-10T03:43:53;-3.30;99.90
1277;DHT22;631;51.024;13.826;2023-02-10T03:46:19;-3.20;99.90
1277;DHT22;631;51.024;13.826;2023-02-10T03:48:44;-3.10;99.90
1277;DHT22;631;51.024;13.826;2023-02-10T03:51:10;-3.00;99.90
1277;DHT22;631;51.024;13.826;2023-02-10T03:53:36;-2.90;99.90
1277;DHT22;631;51.024;13.826;2023-02-10T03:56:02;-2.80;99.90
1277;DHT22;631;51.024;13.826;2023-02-10T03:58:28;-2.70;99.90
1277;DHT22;631;51.024;13.826;2023-02-10T04:00:54;-2.70;99.90
1277;DHT22;631;51.024;13.826;2023-02-10T04:03:19;-2.60;99.90
1277;DHT22;631;51.024;13.826;2023-02-10T04:05:45;-2.50;99.90
1277;DHT22;631;51.024;13.826;2023-02-10T04:08:11;-2.40;99.90
1277;DHT22;631;51.024;13.826;2023-02-10T04:10:37;-2.40;99.90
1277;DHT22;631;51.024;13.826;2023-02-10T04:13:02;-2.30;99.90
1277;DHT22;631;51.024;13.826;2023-02-10T04:15:28;-2.20;99.90
1277;DHT22;631;51.024;13.826;2023-02-10T04:17:54;-2.10;99.90
1277;DHT22;631;51.024;13.826;2023-02-10T04:20:22;-2.00;99.90
1277;DHT22;631;51.024;13.826;2023-02-10T04:22:47;-2.00;99.90
1277;DHT22;631;51.024;13.826;2023-02-10T04:25:13;-2.00;99.90
1277;DHT22;631;51.024;13.826;2023-02-10T04:27:38;-1.90;99.90
1277;DHT22;631;51.024;13.826;2023-02-10T04:30:04;-1.80;99.90
1277;DHT22;631;51.024;13.826;2023-02-10T04:32:30;-1.80;99.90
1277;DHT22;631;51.024;13.826;2023-02-10T04:34:56;-1.80;99.90
1277;DHT22;631;51.024;13.826;2023-02-10T04:37:22;-1.70;99.90
1277;DHT22;631;51.024;13.826;2023-02-10T04:39:47;-1.60;99.90
1277;DHT22;631;51.024;13.826;2023-02-10T04:42:13;-1.70;99.90
1277;DHT22;631;51.024;13.826;2023-02-10T04:44:38;-1.60;99.90
1277;DHT22;631;51.024;13.826;2023-02-10T04:47:04;-1.60;99.90
1277;DHT22;631;51.024;13.826;2023-02-10T04:49:30;-1.50;99.90
1277;DHT22;631;51.024;13.826;2023-02-10T04:51:55;-1.50;99.90
1277;DHT22;631;51.024;13.826;2023-02-10T04:54:21;-1.50;99.90
1277;DHT22;631;51.024;13.826;2023-02-10T04:56:48;-1.40;99.90
1277;DHT22;631;51.024;13.826;2023-02-10T04:59:14;-1.40;99.90
1277;DHT22;631;51.024;13.826;2023-02-10T05:01:39;-1.40;99.90
1277;DHT22;631;51.024;13.826;2023-02-10T05:04:05;-1.30;99.90
1277;DHT22;631;51.024;13.826;2023-02-10T05:06:31;-1.30;99.90
1277;DHT22;631;51.024;13.826;2023-02-10T05:08:56;-1.30;99.90
1277;DHT22;631;51.024;13.826;2023-02-10T05:11:22;-1.30;99.90
1277;DHT22;631;51.024;13.826;2023-02-10T05:13:48;-1.20;99.90
1277;DHT22;631;51.024;13.826;2023-02-10T05:16:14;-1.20;99.90
1277;DHT22;631;51.024;13.826;2023-02-10T05:18:40;-1.20;99.90
1277;DHT22;631;51.024;13.826;2023-02-10T05:21:06;-1.10;99.90
1277;DHT22;631;51.024;13.826;2023-02-10T05:23:33;-1.10;99.90
1277;DHT22;631;51.024;13.826;2023-02-10T05:25:59;-1.00;99.90
1277;DHT22;631;51.024;13.826;2023-02-10T05:28:24;-1.00;99.90
1277;DHT22;631;51.024;13.826;2023-02-10T05:30:50;-1.00;99.90
1277;DHT22;631;51.024;13.826;2023-02-10T05:33:16;-0.90;99.90
1277;DHT22;631;51.024;13.826;2023-02-10T05:35:41;-0.90;99.90
1277;DHT22;631;51.024;13.826;2023-02-10T05:38:07;-0.80;99.90
1277;DHT22;631;51.024;13.826;2023-02-10T05:40:33;-0.80;99.90
1277;DHT22;631;51.024;13.826;2023-02-10T05:42:58;-0.70;99.90
1277;DHT22;631;51.024;13.826;2023-02-10T05:45:24;-0.70;99.90
1277;DHT22;631;51.024;13.826;2023-02-10T05:47:50;-0.60;99.90
1277;DHT22;631;51.024;13.826;2023-02-10T05:50:17;-0.50;99.90
1277;DHT22;631;51.024;13.826;2023-02-10T05:52:43;-0.50;99.90
1277;DHT22;631;51.024;13.826;2023-02-10T05:55:09;-0.40;99.90
1277;DHT22;631;51.024;13.826;2023-02-10T05:57:34;-0.40;99.90
1277;DHT22;631;51.024;13.826;2023-02-10T06:00:00;-0.30;99.90
1277;DHT22;631;51.024;13.826;2023-02-10T06:02:26;-0.20;99.90
1277;DHT22;631;51.024;13.826;2023-02-10T06:04:51;-0.20;99.90
1277;DHT22;631;51.024;13.826;2023-02-10T06:07:17;-0.20;99.90
1277;DHT22;631;51.024;13.826;2023-02-10T06:09:43;-0.20;99.90
1277;DHT22;631;51.024;13.826;2023-02-10T06:12:10;-0.20;99.90
1277;DHT22;631;51.024;13.826;2023-02-10T06:14:35;-0.20;99.90
1277;DHT22;631;51.024;13.826;2023-02-10T06:17:06;-0.20;99.90
1277;DHT22;631;51.024;13.826;2023-02-10T06:19:38;-0.30;99.90
1277;DHT22;631;51.024;13.826;2023-02-10T06:22:06;-0.40;99.90
1277;DHT22;631;51.024;13.826;2023-02-10T06:24:32;-0.40;99.90
1277;DHT22;631;51.024;13.826;2023-02-10T06:26:58;-0.40;99.90
1277;DHT22;631;51.024;13.826;2023-02-10T06:29:24;-0.50;99.90
1277;DHT22;631;51.024;13.826;2023-02-10T06:31:50;-0.50;99.90
1277;DHT22;631;51.024;13.826;2023-02-10T06:34:15;-0.60;99.90
1277;DHT22;631;51.024;13.826;2023-02-10T06:36:41;-0.60;99.90
1277;DHT22;631;51.024;13.826;2023-02-10T06:39:06;-0.50;99.90
1277;DHT22;631;51.024;13.826;2023-02-10T06:41:32;-0.50;99.90
1277;DHT22;631;51.024;13.826;2023-02-10T06:43:58;-0.50;99.90
1277;DHT22;631;51.024;13.826;2023-02-10T06:46:24;-0.50;99.90
1277;DHT22;631;51.024;13.826;2023-02-10T06:48:50;-0.50;99.90
1277;DHT22;631;51.024;13.826;2023-02-10T06:51:15;-0.50;99.90
1277;DHT22;631;51.024;13.826;2023-02-10T06:53:41;-0.40;99.90
1277;DHT22;631;51.024;13.826;2023-02-10T06:56:08;-0.50;99.90
1277;DHT22;631;51.024;13.826;2023-02-10T06:58:33;-0.60;99.90
1277;DHT22;631;51.024;13.826;2023-02-10T07:00:59;-0.60;99.90
1277;DHT22;631;51.024;13.826;2023-02-10T07:03:26;-0.60;99.90
1277;DHT22;631;51.024;13.826;2023-02-10T07:05:52;-0.60;99.90
1277;DHT22;631;51.024;13.826;2023-02-10T07:08:17;-0.60;99.90
1277;DHT22;631;51.024;13.826;2023-02-10T07:10:43;-0.60;99.90
1277;DHT22;631;51.024;13.826;2023-02-10T07:13:09;-0.60;99.90
1277;DHT22;631;51.024;13.826;2023-02-10T07:15:34;-0.60;99.90
1277;DHT22;631;51.024;13.826;2023-02-10T07:18:00;-0.60;99.90
1277;DHT22;631;51.024;13.826;2023-02-10T07:20:26;-0.60;99.90
1277;DHT22;631;51.024;13.826;2023-02-10T07:22:51;-0.60;99.90
1277;DHT22;631;51.024;13.826;2023-02-10T07:25:18;-0.50;99.90
1277;DHT22;631;51.024;13.826;2023-02-10T07:27:43;-0.50;99.90
1277;DHT22;631;51.024;13.826;2023-02-10T07:30:10;-0.50;99.90
1277;DHT22;631;51.024;13.826;2023-02-10T07:32:36;-0.40;99.90
1277;DHT22;631;51.024;13.826;2023-02-10T07:35:02;-0.30;99.90
1277;DHT22;631;51.024;13.826;2023-02-10T07:37:28;-0.30;99.90
1277;DHT22;631;51.024;13.826;2023-02-10T07:39:54;-0.30;99.90
1277;DHT22;631;51.024;13.826;2023-02-10T07:42:20;-0.30;99.90
1277;DHT22;631;51.024;13.826;2023-02-10T07:44:45;-0.30;99.90
1277;DHT22;631;51.024;13.826;2023-02-10T07:47:11;-0.40;99.90
1277;DHT22;631;51.024;13.826;2023-02-10T07:49:37;-0.40;99.90
1277;DHT22;631;51.024;13.826;2023-02-10T07:52:02;-0.30;99.90
1277;DHT22;631;51.024;13.826;2023-02-10T07:54:28;-0.20;99.90
1277;DHT22;631;51.024;13.826;2023-02-10T07:56:55;-0.10;99.90
1277;DHT22;631;51.024;13.826;2023-02-10T07:59:21;0.00;99.90
1277;DHT22;631;51.024;13.826;2023-02-10T08:01:47;0.10;99.90
1277;DHT22;631;51.024;13.826;2023-02-10T08:04:13;0.10;99.90
1277;DHT22;631;51.024;13.826;2023-02-10T08:06:39;0.10;99.90
1277;DHT22;631;51.024;13.826;2023-02-10T08:09:05;0.00;99.90
1277;DHT22;631;51.024;13.826;2023-02-10T08:11:31;-0.10;99.90
1277;DHT22;631;51.024;13.826;2023-02-10T08:13:57;-0.10;99.90
1277;DHT22;631;51.024;13.826;2023-02-10T08:16:22;0.00;99.90
1277;DHT22;631;51.024;13.826;2023-02-10T08:18:48;0.00;99.90
1277;DHT22;631;51.024;13.826;2023-02-10T08:21:13;0.10;99.90
1277;DHT22;631;51.024;13.826;2023-02-10T08:23:39;0.20;99.90
1277;DHT22;631;51.024;13.826;2023-02-10T08:26:07;0.30;99.90
1277;DHT22;631;51.024;13.826;2023-02-10T08:28:34;0.50;99.90
1277;DHT22;631;51.024;13.826;2023-02-10T08:31:01;0.60;99.90
1277;DHT22;631;51.024;13.826;2023-02-10T08:33:26;0.60;99.90
1277;DHT22;631;51.024;13.826;2023-02-10T08:35:52;0.70;99.90
1277;DHT22;631;51.024;13.826;2023-02-10T08:38:18;0.80;99.90
1277;DHT22;631;51.024;13.826;2023-02-10T08:40:43;0.90;99.90
1277;DHT22;631;51.024;13.826;2023-02-10T08:43:09;1.10;99.90
1277;DHT22;631;51.024;13.826;2023-02-10T08:45:36;1.20;99.90
1277;DHT22;631;51.024;13.826;2023-02-10T08:48:03;1.40;99.90
1277;DHT22;631;51.024;13.826;2023-02-10T08:50:28;1.40;99.90
1277;DHT22;631;51.024;13.826;2023-02-10T08:52:54;1.40;99.90
1277;DHT22;631;51.024;13.826;2023-02-10T08:55:20;1.60;99.90
1277;DHT22;631;51.024;13.826;2023-02-10T08:57:45;1.60;99.90
1277;DHT22;631;51.024;13.826;2023-02-10T09:00:11;1.70;99.90
1277;DHT22;631;51.024;13.826;2023-02-10T09:02:37;1.80;99.90
1277;DHT22;631;51.024;13.826;2023-02-10T09:05:03;1.90;99.90
1277;DHT22;631;51.024;13.826;2023-02-10T09:07:28;2.00;99.90
1277;DHT22;631;51.024;13.826;2023-02-10T09:09:54;2.10;99.90
1277;DHT22;631;51.024;13.826;2023-02-10T09:12:20;2.10;99.90
1277;DHT22;631;51.024;13.826;2023-02-10T09:14:45;2.10;99.90
1277;DHT22;631;51.024;13.826;2023-02-10T09:17:11;2.20;99.90
1277;DHT22;631;51.024;13.826;2023-02-10T09:19:37;2.20;99.90
1277;DHT22;631;51.024;13.826;2023-02-10T09:22:06;2.30;99.90
1277;DHT22;631;51.024;13.826;2023-02-10T09:24:32;2.30;99.90
1277;DHT22;631;51.024;13.826;2023-02-10T09:26:58;2.40;99.90
1277;DHT22;631;51.024;13.826;2023-02-10T09:29:24;2.50;99.90
1277;DHT22;631;51.024;13.826;2023-02-10T09:31:50;2.60;99.90
1277;DHT22;631;51.024;13.826;2023-02-10T09:34:15;2.60;99.90
1277;DHT22;631;51.024;13.826;2023-02-10T09:36:41;2.70;99.90
1277;DHT22;631;51.024;13.826;2023-02-10T09:39:07;2.80;99.90
1277;DHT22;631;51.024;13.826;2023-02-10T09:52:12;3.00;99.90
1277;DHT22;631;51.024;13.826;2023-02-10T09:54:41;3.10;99.90
1277;DHT22;631;51.024;13.826;2023-02-10T09:57:17;3.20;99.90
1277;DHT22;631;51.024;13.826;2023-02-10T09:59:45;3.30;99.90
1277;DHT22;631;51.024;13.826;2023-02-10T10:02:28;3.40;99.90
1277;DHT22;631;51.024;13.826;2023-02-10T10:04:58;3.40;99.90
1277;DHT22;631;51.024;13.826;2023-02-10T10:07:30;3.40;99.90
1277;DHT22;631;51.024;13.826;2023-02-10T10:10:20;3.40;99.90
1277;DHT22;631;51.024;13.826;2023-02-10T10:12:47;3.40;99.90
1277;DHT22;631;51.024;13.826;2023-02-10T10:15:17;3.30;99.90
1277;DHT22;631;51.024;13.826;2023-02-10T10:18:05;3.40;99.90
1277;DHT22;631;51.024;13.826;2023-02-10T10:23:24;3.60;99.90
1277;DHT22;631;51.024;13.826;2023-02-10T10:31:54;3.70;99.90
1277;DHT22;631;51.024;13.826;2023-02-10T10:34:24;3.70;99.90
1277;DHT22;631;51.024;13.826;2023-02-10T10:36:53;3.80;99.90
1277;DHT22;631;51.024;13.826;2023-02-10T10:39:28;3.90;99.90
1277;DHT22;631;51.024;13.826;2023-02-10T10:41:55;3.90;99.90
1277;DHT22;631;51.024;13.826;2023-02-10T10:44:24;3.90;99.90
1277;DHT22;631;51.024;13.826;2023-02-10T10:47:12;4.00;99.90
1277;DHT22;631;51.024;13.826;2023-02-10T10:49:40;4.00;99.90
1277;DHT22;631;51.024;13.826;2023-02-10T10:52:28;4.10;99.90
1277;DHT22;631;51.024;13.826;2023-02-10T10:54:55;4.00;99.90
1277;DHT22;631;51.024;13.826;2023-02-10T10:57:21;4.10;99.90
1277;DHT22;631;51.024;13.826;2023-02-10T11:00:26;3.90;99.90
1277;DHT22;631;51.024;13.826;2023-02-10T11:02:57;4.00;99.90
1277;DHT22;631;51.024;13.826;2023-02-10T11:05:30;4.00;99.90
1277;DHT22;631;51.024;13.826;2023-02-10T11:07:57;4.10;99.90
1277;DHT22;631;51.024;13.826;2023-02-10T11:10:27;4.10;99.90
1277;DHT22;631;51.024;13.826;2023-02-10T11:12:55;4.10;99.90
1277;DHT22;631;51.024;13.826;2023-02-10T11:15:38;4.10;99.90
1277;DHT22;631;51.024;13.826;2023-02-10T11:18:12;4.10;99.90
1277;DHT22;631;51.024;13.826;2023-02-10T11:20:39;4.10;99.90
1277;DHT22;631;51.024;13.826;2023-02-10T11:23:23;4.00;99.90
1277;DHT22;631;51.024;13.826;2023-02-10T11:26:17;4.00;99.90
1277;DHT22;631;51.024;13.826;2023-02-10T11:28:42;4.00;99.90
1277;DHT22;631;51.024;13.826;2023-02-10T11:31:28;3.90;99.90
1277;DHT22;631;51.024;13.826;2023-02-10T11:33:58;3.90;99.90
1277;DHT22;631;51.024;13.826;2023-02-10T11:36:38;3.90;99.90
1277;DHT22;631;51.024;13.826;2023-02-10T11:39:06;3.90;99.90
1277;DHT22;631;51.024;13.826;2023-02-10T11:41:40;3.80;99.90
1277;DHT22;631;51.024;13.826;2023-02-10T11:44:22;3.80;99.90
1277;DHT22;631;51.024;13.826;2023-02-10T11:47:05;3.80;99.90
1277;DHT22;631;51.024;13.826;2023-02-10T11:49:35;3.80;99.90
1277;DHT22;631;51.024;13.826;2023-02-10T11:52:03;3.90;99.90
1277;DHT22;631;51.024;13.826;2023-02-10T11:54:29;3.80;99.90
1277;DHT22;631;51.024;13.826;2023-02-10T12:00:15;3.80;99.90
1277;DHT22;631;51.024;13.826;2023-02-10T12:06:05;3.60;99.90
1277;DHT22;631;51.024;13.826;2023-02-10T12:08:40;3.70;99.90
1277;DHT22;631;51.024;13.826;2023-02-10T12:17:30;3.70;99.90
1277;DHT22;631;51.024;13.826;2023-02-10T12:28:08;3.80;99.90
1277;DHT22;631;51.024;13.826;2023-02-10T12:33:43;4.00;99.90
1277;DHT22;631;51.024;13.826;2023-02-10T12:36:30;4.10;99.90
1277;DHT22;631;51.024;13.826;2023-02-10T12:44:39;4.60;99.90
1277;DHT22;631;51.024;13.826;2023-02-10T12:47:33;4.70;99.90
1277;DHT22;631;51.024;13.826;2023-02-10T12:53:17;4.80;99.90
1277;DHT22;631;51.024;13.826;2023-02-10T12:56:01;4.80;99.90
1277;DHT22;631;51.024;13.826;2023-02-10T12:58:33;4.80;99.90
1277;DHT22;631;51.024;13.826;2023-02-10T13:03:39;4.80;99.90
1277;DHT22;631;51.024;13.826;2023-02-10T13:09:14;5.10;99.90
1277;DHT22;631;51.024;13.826;2023-02-10T13:11:55;5.20;99.90
1277;DHT22;631;51.024;13.826;2023-02-10T13:14:27;5.00;99.90
1277;DHT22;631;51.024;13.826;2023-02-10T13:16:58;5.00;99.90
1277;DHT22;631;51.024;13.826;2023-02-10T13:20:00;5.00;99.90
1277;DHT22;631;51.024;13.826;2023-02-10T13:25:16;5.20;99.90
1277;DHT22;631;51.024;13.826;2023-02-10T13:28:12;5.30;99.90
1277;DHT22;631;51.024;13.826;2023-02-10T13:36:17;5.60;99.90
1277;DHT22;631;51.024;13.826;2023-02-10T13:38:46;5.50;99.90
1277;DHT22;631;51.024;13.826;2023-02-10T13:41:25;5.70;99.90
1277;DHT22;631;51.024;13.826;2023-02-10T13:44:23;5.70;99.90
1277;DHT22;631;51.024;13.826;2023-02-10T13:49:56;5.70;99.90
1277;DHT22;631;51.024;13.826;2023-02-10T13:52:26;5.90;99.90
1277;DHT22;631;51.024;13.826;2023-02-10T13:57:33;5.90;99.90
1277;DHT22;631;51.024;13.826;2023-02-10T14:02:42;6.00;99.90
1277;DHT22;631;51.024;13.826;2023-02-10T14:07:51;5.90;99.90
1277;DHT22;631;51.024;13.826;2023-02-10T14:15:31;5.40;99.90
1277;DHT22;631;51.024;13.826;2023-02-10T14:18:28;5.40;99.90
1277;DHT22;631;51.024;13.826;2023-02-10T14:23:33;5.30;99.90
1277;DHT22;631;51.024;13.826;2023-02-10T14:26:06;5.30;99.90
1277;DHT22;631;51.024;13.826;2023-02-10T14:28:36;5.30;99.90
1277;DHT22;631;51.024;13.826;2023-02-10T14:31:17;5.30;99.90
1277;DHT22;631;51.024;13.826;2023-02-10T14:33:53;5.30;99.90
1277;DHT22;631;51.024;13.826;2023-02-10T14:36:19;5.30;99.90
1277;DHT22;631;51.024;13.826;2023-02-10T14:38:58;5.30;99.90
1277;DHT22;631;51.024;13.826;2023-02-10T14:41:27;5.40;99.90
1277;DHT22;631;51.024;13.826;2023-02-10T14:43:54;5.40;99.90
1277;DHT22;631;51.024;13.826;2023-02-10T14:46:29;5.40;99.90
1277;DHT22;631;51.024;13.826;2023-02-10T14:49:00;5.50;99.90
1277;DHT22;631;51.024;13.826;2023-02-10T14:51:28;5.50;99.90
1277;DHT22;631;51.024;13.826;2023-02-10T14:53:54;5.60;99.90
1277;DHT22;631;51.024;13.826;2023-02-10T14:56:24;5.70;99.90
1277;DHT22;631;51.024;13.826;2023-02-10T14:58:50;5.80;99.90
1277;DHT22;631;51.024;13.826;2023-02-10T15:01:42;5.80;99.90
1277;DHT22;631;51.024;13.826;2023-02-10T15:04:14;5.80;99.90
1277;DHT22;631;51.024;13.826;2023-02-10T15:06:44;5.80;99.90
1277;DHT22;631;51.024;13.826;2023-02-10T15:09:21;5.90;99.90
1277;DHT22;631;51.024;13.826;2023-02-10T15:12:56;5.80;99.90
1277;DHT22;631;51.024;13.826;2023-02-10T15:15:37;5.80;99.90
1277;DHT22;631;51.024;13.826;2023-02-10T15:18:21;5.70;99.90
1277;DHT22;631;51.024;13.826;2023-02-10T15:20:57;5.70;99.90
1277;DHT22;631;51.024;13.826;2023-02-10T15:23:24;5.70;99.90
1277;DHT22;631;51.024;13.826;2023-02-10T15:26:16;5.80;99.90
1277;DHT22;631;51.024;13.826;2023-02-10T15:28:43;5.80;99.90
1277;DHT22;631;51.024;13.826;2023-02-10T15:31:27;5.80;99.90
1277;DHT22;631;51.024;13.826;2023-02-10T15:33:58;5.80;99.90
1277;DHT22;631;51.024;13.826;2023-02-10T15:36:45;5.70;99.90
1277;DHT22;631;51.024;13.826;2023-02-10T15:39:25;5.70;99.90
1277;DHT22;631;51.024;13.826;2023-02-10T15:49:45;5.50;99.90
1277;DHT22;631;51.024;13.826;2023-02-10T15:52:30;5.60;99.90
1277;DHT22;631;51.024;13.826;2023-02-10T15:55:00;5.50;99.90
1277;DHT22;631;51.024;13.826;2023-02-10T15:57:31;5.50;99.90
1277;DHT22;631;51.024;13.826;2023-02-10T15:59:57;5.40;99.90
1277;DHT22;631;51.024;13.826;2023-02-10T16:02:23;5.10;99.90
1277;DHT22;631;51.024;13.826;2023-02-10T16:04:52;5.10;99.90
1277;DHT22;631;51.024;13.826;2023-02-10T16:07:21;5.00;99.90
1277;DHT22;631;51.024;13.826;2023-02-10T16:09:49;5.00;99.90
1277;DHT22;631;51.024;13.826;2023-02-10T16:12:14;4.90;99.90
1277;DHT22;631;51.024;13.826;2023-02-10T16:14:40;4.90;99.90
1277;DHT22;631;51.024;13.826;2023-02-10T16:17:06;4.90;99.90
1277;DHT22;631;51.024;13.826;2023-02-10T16:19:32;4.90;99.90
1277;DHT22;631;51.024;13.826;2023-02-10T16:21:58;4.90;99.90
1277;DHT22;631;51.024;13.826;2023-02-10T16:24:27;4.90;99.90
1277;DHT22;631;51.024;13.826;2023-02-10T16:26:56;4.90;99.90
1277;DHT22;631;51.024;13.826;2023-02-10T16:29:24;4.90;99.90
1277;DHT22;631;51.024;13.826;2023-02-10T16:31:50;4.80;99.90
1277;DHT22;631;51.024;13.826;2023-02-10T16:34:16;4.80;99.90
1277;DHT22;631;51.024;13.826;2023-02-10T16:36:42;4.80;99.90
1277;DHT22;631;51.024;13.826;2023-02-10T16:39:16;4.80;99.90
1277;DHT22;631;51.024;13.826;2023-02-10T16:41:43;4.90;99.90
1277;DHT22;631;51.024;13.826;2023-02-10T16:44:09;4.90;99.90
1277;DHT22;631;51.024;13.826;2023-02-10T16:46:34;4.80;99.90
1277;DHT22;631;51.024;13.826;2023-02-10T16:49:00;4.80;99.90
1277;DHT22;631;51.024;13.826;2023-02-10T16:51:26;4.70;99.90
1277;DHT22;631;51.024;13.826;2023-02-10T16:53:53;4.70;99.90
1277;DHT22;631;51.024;13.826;2023-02-10T16:56:21;4.80;99.90
1277;DHT22;631;51.024;13.826;2023-02-10T16:58:49;4.70;99.90
1277;DHT22;631;51.024;13.826;2023-02-10T17:01:14;4.70;99.90
1277;DHT22;631;51.024;13.826;2023-02-10T17:03:41;4.70;99.90
1277;DHT22;631;51.024;13.826;2023-02-10T17:06:08;4.60;99.90
1277;DHT22;631;51.024;13.826;2023-02-10T17:08:35;4.50;99.90
1277;DHT22;631;51.024;13.826;2023-02-10T17:11:01;4.40;99.90
1277;DHT22;631;51.024;13.826;2023-02-10T17:13:26;4.40;99.90
1277;DHT22;631;51.024;13.826;2023-02-10T17:15:52;4.30;99.90
1277;DHT22;631;51.024;13.826;2023-02-10T17:18:18;4.20;99.90
1277;DHT22;631;51.024;13.826;2023-02-10T17:20:43;4.10;99.90
1277;DHT22;631;51.024;13.826;2023-02-10T17:23:09;4.00;99.90
1277;DHT22;631;51.024;13.826;2023-02-10T17:25:37;3.90;99.90
1277;DHT22;631;51.024;13.826;2023-02-10T17:28:03;3.90;99.90
1277;DHT22;631;51.024;13.826;2023-02-10T17:30:33;3.80;99.90
1277;DHT22;631;51.024;13.826;2023-02-10T17:33:01;3.70;99.90
1277;DHT22;631;51.024;13.826;2023-02-10T17:35:27;3.60;99.90
1277;DHT22;631;51.024;13.826;2023-02-10T17:37:55;3.50;99.90
1277;DHT22;631;51.024;13.826;2023-02-10T17:40:42;3.30;99.90
1277;DHT22;631;51.024;13.826;2023-02-10T17:43:08;3.20;99.90
1277;DHT22;631;51.024;13.826;2023-02-10T17:45:36;3.10;99.90
1277;DHT22;631;51.024;13.826;2023-02-10T17:48:01;3.10;99.90
1277;DHT22;631;51.024;13.826;2023-02-10T17:50:30;3.00;99.90
1277;DHT22;631;51.024;13.826;2023-02-10T17:52:55;3.00;99.90
1277;DHT22;631;51.024;13.826;2023-02-10T17:55:21;2.90;99.90
1277;DHT22;631;51.024;13.826;2023-02-10T17:57:47;2.90;99.90
1277;DHT22;631;51.024;13.826;2023-02-10T18:00:13;2.80;99.90
1277;DHT22;631;51.024;13.826;2023-02-10T18:02:39;2.80;99.90
1277;DHT22;631;51.024;13.826;2023-02-10T18:05:06;2.80;99.90
1277;DHT22;631;51.024;13.826;2023-02-10T18:07:31;2.70;99.90
1277;DHT22;631;51.024;13.826;2023-02-10T18:09:57;2.70;99.90
1277;DHT22;631;51.024;13.826;2023-02-10T18:12:23;2.70;99.90
1277;DHT22;631;51.024;13.826;2023-02-10T18:14:48;2.70;99.90
1277;DHT22;631;51.024;13.826;2023-02-10T18:17:14;2.70;99.90